MQT583 BIKF-BGGH
Flight info
| Callsign | MQT583 |
|---|---|
| Flight time | 2h 26m |
| Altitude | 36000 |
| Route | SORIR3A SORIR DCT SOPEN DCT SABAG DCT NAPIB DCT INBAN DCT GETDA |
| Aircraft | A320/M-SDE3FGHIRWY/LB1 |
Departure
| Time | 2026-04-22 18:07 |
|---|---|
| Airport | Keflavik International Airport (BIKF) |
Arrival
| Time | 2026-04-22 20:33 |
|---|---|
| Airport | Nuuk International Airport (BGGH) |
| Time | Latitude | Longitude | Altitude | Speed | Heading |
|---|---|---|---|---|---|
| 2026-04-22 17:20 | 63.99327 | -22.62163 | 138 ft | 0 kts | 270° |
| 2026-04-22 17:51 | 63.99327 | -22.62135 | 142 ft | 4 kts | 271° |
| 2026-04-22 17:51 | 63.99326 | -22.62074 | 140 ft | 4 kts | 272° |
| 2026-04-22 17:52 | 63.99327 | -22.62014 | 142 ft | 4 kts | 249° |
| 2026-04-22 17:52 | 63.99336 | -22.61987 | 142 ft | 1 kts | 180° |
| 2026-04-22 17:55 | 63.99332 | -22.61987 | 142 ft | 2 kts | 180° |
| 2026-04-22 17:56 | 63.99310 | -22.61987 | 142 ft | 4 kts | 180° |
| 2026-04-22 17:56 | 63.99270 | -22.61986 | 142 ft | 7 kts | 180° |
| 2026-04-22 17:56 | 63.99213 | -22.61986 | 142 ft | 9 kts | 180° |
| 2026-04-22 17:56 | 63.99175 | -22.61919 | 142 ft | 8 kts | 108° |
| 2026-04-22 17:57 | 63.99172 | -22.61796 | 145 ft | 7 kts | 89° |
| 2026-04-22 17:57 | 63.99173 | -22.61690 | 147 ft | 7 kts | 89° |
| 2026-04-22 17:57 | 63.99173 | -22.61581 | 149 ft | 7 kts | 90° |
| 2026-04-22 17:57 | 63.99173 | -22.61465 | 152 ft | 8 kts | 90° |
| 2026-04-22 17:58 | 63.99173 | -22.61328 | 155 ft | 8 kts | 90° |
| 2026-04-22 17:58 | 63.99174 | -22.61206 | 158 ft | 7 kts | 90° |
| 2026-04-22 17:58 | 63.99174 | -22.61100 | 160 ft | 7 kts | 90° |
| 2026-04-22 17:58 | 63.99166 | -22.60998 | 163 ft | 8 kts | 116° |
| 2026-04-22 17:59 | 63.99113 | -22.60939 | 166 ft | 11 kts | 176° |
| 2026-04-22 17:59 | 63.99014 | -22.60938 | 170 ft | 17 kts | 180° |
| 2026-04-22 17:59 | 63.98888 | -22.60939 | 169 ft | 20 kts | 180° |
| 2026-04-22 17:59 | 63.98731 | -22.60940 | 165 ft | 24 kts | 180° |
| 2026-04-22 18:00 | 63.98633 | -22.60941 | 167 ft | 15 kts | 179° |
| 2026-04-22 18:00 | 63.98605 | -22.60940 | 168 ft | 0 kts | 180° |
| 2026-04-22 18:00 | 63.98604 | -22.60940 | 168 ft | 0 kts | 180° |
| 2026-04-22 18:01 | 63.98589 | -22.60940 | 166 ft | 4 kts | 180° |
| 2026-04-22 18:01 | 63.98508 | -22.60940 | 169 ft | 19 kts | 180° |
| 2026-04-22 18:01 | 63.98365 | -22.60941 | 166 ft | 22 kts | 180° |
| 2026-04-22 18:01 | 63.98201 | -22.60944 | 165 ft | 25 kts | 180° |
| 2026-04-22 18:02 | 63.98086 | -22.60943 | 167 ft | 25 kts | 179° |
| 2026-04-22 18:02 | 63.97922 | -22.60941 | 169 ft | 23 kts | 180° |
| 2026-04-22 18:02 | 63.97770 | -22.60942 | 170 ft | 21 kts | 180° |
| 2026-04-22 18:02 | 63.97615 | -22.60942 | 168 ft | 24 kts | 180° |
| 2026-04-22 18:03 | 63.97446 | -22.60942 | 165 ft | 23 kts | 180° |
| 2026-04-22 18:03 | 63.97271 | -22.60941 | 160 ft | 28 kts | 180° |
| 2026-04-22 18:03 | 63.97105 | -22.60942 | 154 ft | 21 kts | 180° |
| 2026-04-22 18:03 | 63.96969 | -22.60943 | 149 ft | 21 kts | 180° |
| 2026-04-22 18:04 | 63.96804 | -22.60944 | 143 ft | 26 kts | 180° |
| 2026-04-22 18:04 | 63.96639 | -22.60944 | 137 ft | 16 kts | 180° |
| 2026-04-22 18:04 | 63.96534 | -22.60944 | 135 ft | 12 kts | 180° |
| 2026-04-22 18:04 | 63.96467 | -22.60892 | 136 ft | 8 kts | 126° |
| 2026-04-22 18:05 | 63.96459 | -22.60786 | 138 ft | 6 kts | 91° |
| 2026-04-22 18:05 | 63.96459 | -22.60722 | 141 ft | 3 kts | 91° |
| 2026-04-22 18:05 | 63.96458 | -22.60648 | 143 ft | 7 kts | 91° |
| 2026-04-22 18:05 | 63.96489 | -22.60546 | 145 ft | 9 kts | 18° |
| 2026-04-22 18:06 | 63.96564 | -22.60542 | 147 ft | 21 kts | 0° |
| 2026-04-22 18:06 | 63.96951 | -22.60552 | 160 ft | 87 kts | 0° |
| 2026-04-22 18:06 | 63.97732 | -22.60542 | 172 ft | 135 kts | 0° |
| 2026-04-22 18:06 | 63.98765 | -22.60520 | 536 ft | 151 kts | 358° |
| 2026-04-22 18:07 | 63.99828 | -22.60479 | 1159 ft | 154 kts | 356° |
| 2026-04-22 18:07 | 64.00902 | -22.60459 | 1826 ft | 155 kts | 356° |
| 2026-04-22 18:07 | 64.02011 | -22.60468 | 2304 ft | 166 kts | 356° |
| 2026-04-22 18:07 | 64.03239 | -22.60493 | 2559 ft | 187 kts | 356° |
| 2026-04-22 18:08 | 64.04629 | -22.60519 | 2825 ft | 212 kts | 355° |
| 2026-04-22 18:08 | 64.06093 | -22.61452 | 3208 ft | 232 kts | 322° |
| 2026-04-22 18:08 | 64.07076 | -22.64461 | 3824 ft | 245 kts | 295° |
| 2026-04-22 18:08 | 64.07649 | -22.68188 | 4663 ft | 251 kts | 287° |
| 2026-04-22 18:09 | 64.08088 | -22.72097 | 5510 ft | 257 kts | 284° |
| 2026-04-22 18:09 | 64.08501 | -22.76098 | 6362 ft | 260 kts | 284° |
| 2026-04-22 18:09 | 64.08930 | -22.80145 | 7190 ft | 265 kts | 284° |
| 2026-04-22 18:09 | 64.09391 | -22.84279 | 7935 ft | 271 kts | 285° |
| 2026-04-22 18:10 | 64.09881 | -22.88470 | 8725 ft | 275 kts | 286° |
| 2026-04-22 18:10 | 64.10393 | -22.92716 | 9537 ft | 278 kts | 287° |
| 2026-04-22 18:10 | 64.10920 | -22.97007 | 10330 ft | 282 kts | 287° |
| 2026-04-22 18:10 | 64.11462 | -23.01388 | 10888 ft | 294 kts | 287° |
| 2026-04-22 18:11 | 64.12035 | -23.06006 | 11077 ft | 317 kts | 286° |
| 2026-04-22 18:11 | 64.12651 | -23.10984 | 11477 ft | 330 kts | 287° |
| 2026-04-22 18:11 | 64.13281 | -23.16082 | 12110 ft | 335 kts | 286° |
| 2026-04-22 18:11 | 64.13921 | -23.21251 | 12757 ft | 339 kts | 286° |
| 2026-04-22 18:12 | 64.14564 | -23.26486 | 13410 ft | 344 kts | 286° |
| 2026-04-22 18:12 | 64.15210 | -23.31788 | 14057 ft | 348 kts | 286° |
| 2026-04-22 18:12 | 64.15861 | -23.37157 | 14657 ft | 352 kts | 285° |
| 2026-04-22 18:12 | 64.16514 | -23.42598 | 15228 ft | 356 kts | 285° |
| 2026-04-22 18:13 | 64.17173 | -23.48088 | 15769 ft | 360 kts | 285° |
| 2026-04-22 18:13 | 64.17842 | -23.53650 | 16303 ft | 364 kts | 286° |
| 2026-04-22 18:13 | 64.18744 | -23.59110 | 16812 ft | 368 kts | 295° |
| 2026-04-22 18:13 | 64.19830 | -23.64463 | 17378 ft | 372 kts | 295° |
| 2026-04-22 18:14 | 64.20925 | -23.69878 | 17921 ft | 376 kts | 295° |
| 2026-04-22 18:14 | 64.22026 | -23.75355 | 18470 ft | 380 kts | 295° |
| 2026-04-22 18:14 | 64.23137 | -23.80898 | 18983 ft | 384 kts | 295° |
| 2026-04-22 18:14 | 64.24255 | -23.86505 | 19447 ft | 388 kts | 295° |
| 2026-04-22 18:15 | 64.25379 | -23.92175 | 19941 ft | 391 kts | 295° |
| 2026-04-22 18:15 | 64.26510 | -23.97895 | 20452 ft | 394 kts | 295° |
| 2026-04-22 18:15 | 64.27647 | -24.03661 | 20957 ft | 397 kts | 295° |
| 2026-04-22 18:15 | 64.28791 | -24.09472 | 21431 ft | 400 kts | 295° |
| 2026-04-22 18:16 | 64.29941 | -24.15331 | 21900 ft | 403 kts | 295° |
| 2026-04-22 18:16 | 64.31095 | -24.21238 | 22354 ft | 406 kts | 295° |
| 2026-04-22 18:16 | 64.32253 | -24.27192 | 22814 ft | 408 kts | 295° |
| 2026-04-22 18:16 | 64.33422 | -24.33198 | 23284 ft | 411 kts | 295° |
| 2026-04-22 18:17 | 64.34595 | -24.39237 | 23740 ft | 414 kts | 295° |
| 2026-04-22 18:17 | 64.35776 | -24.45326 | 24161 ft | 417 kts | 295° |
| 2026-04-22 18:17 | 64.36963 | -24.51465 | 24532 ft | 420 kts | 295° |
| 2026-04-22 18:17 | 64.38151 | -24.57651 | 24911 ft | 423 kts | 294° |
| 2026-04-22 18:18 | 64.39341 | -24.63879 | 25292 ft | 425 kts | 294° |
| 2026-04-22 18:18 | 64.40490 | -24.70189 | 25670 ft | 427 kts | 290° |
| 2026-04-22 18:18 | 64.41416 | -24.76734 | 26059 ft | 429 kts | 289° |
| 2026-04-22 18:18 | 64.42339 | -24.83312 | 26443 ft | 431 kts | 289° |
| 2026-04-22 18:19 | 64.43272 | -24.89919 | 26815 ft | 433 kts | 289° |
| 2026-04-22 18:19 | 64.44212 | -24.96561 | 27180 ft | 435 kts | 289° |
| 2026-04-22 18:19 | 64.45151 | -25.03242 | 27517 ft | 437 kts | 289° |
| 2026-04-22 18:19 | 64.46083 | -25.09963 | 27887 ft | 439 kts | 289° |
| 2026-04-22 18:20 | 64.47015 | -25.16738 | 28225 ft | 442 kts | 288° |
| 2026-04-22 18:20 | 64.47950 | -25.23521 | 28595 ft | 443 kts | 289° |
| 2026-04-22 18:20 | 64.48890 | -25.30363 | 28944 ft | 446 kts | 288° |
| 2026-04-22 18:20 | 64.49824 | -25.37224 | 29299 ft | 448 kts | 288° |
| 2026-04-22 18:21 | 64.50748 | -25.44046 | 29641 ft | 450 kts | 288° |
| 2026-04-22 18:21 | 64.51685 | -25.50998 | 29998 ft | 452 kts | 288° |
| 2026-04-22 18:21 | 64.52628 | -25.57999 | 30342 ft | 455 kts | 288° |
| 2026-04-22 18:21 | 64.53572 | -25.65025 | 30659 ft | 457 kts | 288° |
| 2026-04-22 18:22 | 64.54518 | -25.72091 | 30936 ft | 459 kts | 288° |
| 2026-04-22 18:22 | 64.55466 | -25.79189 | 31272 ft | 460 kts | 288° |
| 2026-04-22 18:22 | 64.56411 | -25.86286 | 31664 ft | 459 kts | 288° |
| 2026-04-22 18:22 | 64.57366 | -25.93482 | 32048 ft | 459 kts | 288° |
| 2026-04-22 18:23 | 64.58301 | -26.00591 | 32424 ft | 460 kts | 288° |
| 2026-04-22 18:23 | 64.59228 | -26.07711 | 32769 ft | 460 kts | 288° |
| 2026-04-22 18:23 | 64.60152 | -26.14831 | 33184 ft | 459 kts | 288° |
| 2026-04-22 18:24 | 64.61994 | -26.29035 | 34001 ft | 458 kts | 288° |
| 2026-04-22 18:24 | 64.62910 | -26.36141 | 34386 ft | 458 kts | 288° |
| 2026-04-22 18:24 | 64.64719 | -26.50369 | 35026 ft | 457 kts | 288° |
| 2026-04-22 18:25 | 64.65621 | -26.57488 | 35319 ft | 457 kts | 288° |
| 2026-04-22 18:25 | 64.66521 | -26.64600 | 35627 ft | 457 kts | 288° |
| 2026-04-22 18:25 | 64.67418 | -26.71708 | 35928 ft | 456 kts | 288° |
| 2026-04-22 18:26 | 64.69191 | -26.85924 | 36443 ft | 456 kts | 288° |
| 2026-04-22 18:26 | 64.70042 | -26.92966 | 36493 ft | 457 kts | 287° |
| 2026-04-22 18:26 | 64.71562 | -27.07386 | 36482 ft | 457 kts | 284° |
| 2026-04-22 18:27 | 64.72896 | -27.21928 | 36466 ft | 457 kts | 284° |
| 2026-04-22 18:27 | 64.74213 | -27.36436 | 36485 ft | 455 kts | 284° |
| 2026-04-22 18:28 | 64.75569 | -27.50907 | 36473 ft | 455 kts | 284° |
| 2026-04-22 18:28 | 64.76927 | -27.65385 | 36478 ft | 455 kts | 284° |
| 2026-04-22 18:29 | 64.78260 | -27.79883 | 36477 ft | 455 kts | 284° |
| 2026-04-22 18:29 | 64.79580 | -27.94404 | 36476 ft | 455 kts | 284° |
| 2026-04-22 18:30 | 64.81534 | -28.16196 | 36484 ft | 455 kts | 284° |
| 2026-04-22 18:31 | 64.82807 | -28.30733 | 36482 ft | 454 kts | 284° |
| 2026-04-22 18:31 | 64.84073 | -28.45275 | 36454 ft | 454 kts | 285° |
| 2026-04-22 18:32 | 64.85326 | -28.59811 | 36472 ft | 454 kts | 284° |
| 2026-04-22 18:32 | 64.86562 | -28.74348 | 36476 ft | 453 kts | 284° |
| 2026-04-22 18:33 | 64.87781 | -28.88906 | 36467 ft | 453 kts | 284° |
| 2026-04-22 18:33 | 64.88985 | -29.03455 | 36459 ft | 453 kts | 285° |
| 2026-04-22 18:34 | 64.90177 | -29.18009 | 36467 ft | 452 kts | 285° |
| 2026-04-22 18:34 | 64.91349 | -29.32567 | 36462 ft | 452 kts | 284° |
| 2026-04-22 18:35 | 64.92508 | -29.47133 | 36452 ft | 452 kts | 284° |
| 2026-04-22 18:35 | 64.93650 | -29.61711 | 36453 ft | 452 kts | 284° |
| 2026-04-22 18:36 | 64.94784 | -29.76297 | 36458 ft | 452 kts | 284° |
| 2026-04-22 18:36 | 64.95906 | -29.90894 | 36443 ft | 452 kts | 284° |
| 2026-04-22 18:37 | 64.97007 | -30.05519 | 36439 ft | 452 kts | 284° |
| 2026-04-22 18:37 | 64.97909 | -30.17650 | 36447 ft | 451 kts | 284° |
| 2026-04-22 18:38 | 64.99165 | -30.34726 | 36443 ft | 451 kts | 284° |
| 2026-04-22 18:38 | 65.00226 | -30.49345 | 36443 ft | 451 kts | 284° |
| 2026-04-22 18:39 | 65.01780 | -30.71173 | 36447 ft | 451 kts | 284° |
| 2026-04-22 18:39 | 65.02796 | -30.85797 | 36404 ft | 451 kts | 284° |
| 2026-04-22 18:40 | 65.03800 | -31.00439 | 36424 ft | 450 kts | 284° |
| 2026-04-22 18:40 | 65.04792 | -31.15065 | 36428 ft | 450 kts | 284° |
| 2026-04-22 18:41 | 65.05769 | -31.29677 | 36433 ft | 449 kts | 284° |
| 2026-04-22 18:41 | 65.06725 | -31.44294 | 36428 ft | 449 kts | 284° |
| 2026-04-22 18:42 | 65.07671 | -31.58914 | 36423 ft | 449 kts | 284° |
| 2026-04-22 18:42 | 65.08601 | -31.73549 | 36426 ft | 448 kts | 284° |
| 2026-04-22 18:43 | 65.09519 | -31.88176 | 36421 ft | 448 kts | 283° |
| 2026-04-22 18:43 | 65.10424 | -32.02812 | 36411 ft | 448 kts | 283° |
| 2026-04-22 18:44 | 65.11313 | -32.17449 | 36385 ft | 447 kts | 283° |
| 2026-04-22 18:44 | 65.12184 | -32.32053 | 36415 ft | 446 kts | 282° |
| 2026-04-22 18:45 | 65.13033 | -32.46631 | 36421 ft | 445 kts | 282° |
| 2026-04-22 18:45 | 65.13864 | -32.61193 | 36420 ft | 444 kts | 282° |
| 2026-04-22 18:46 | 65.14688 | -32.75749 | 36415 ft | 444 kts | 282° |
| 2026-04-22 18:46 | 65.15501 | -32.90295 | 36406 ft | 444 kts | 282° |
| 2026-04-22 18:47 | 65.16166 | -33.02397 | 36401 ft | 444 kts | 282° |
| 2026-04-22 18:47 | 65.16949 | -33.16956 | 36399 ft | 444 kts | 282° |
| 2026-04-22 18:48 | 65.17711 | -33.31520 | 36361 ft | 443 kts | 281° |
| 2026-04-22 18:48 | 65.18459 | -33.46047 | 36396 ft | 441 kts | 281° |
| 2026-04-22 18:49 | 65.19199 | -33.60529 | 36405 ft | 440 kts | 281° |
| 2026-04-22 18:49 | 65.19920 | -33.74990 | 36410 ft | 439 kts | 281° |
| 2026-04-22 18:50 | 65.20622 | -33.89432 | 36398 ft | 439 kts | 281° |
| 2026-04-22 18:50 | 65.21311 | -34.03872 | 36395 ft | 438 kts | 281° |
| 2026-04-22 18:51 | 65.21987 | -34.18316 | 36396 ft | 438 kts | 281° |
| 2026-04-22 18:51 | 65.22649 | -34.32762 | 36372 ft | 438 kts | 280° |
| 2026-04-22 18:52 | 65.23294 | -34.47206 | 36376 ft | 438 kts | 280° |
| 2026-04-22 18:52 | 65.23932 | -34.61638 | 36388 ft | 437 kts | 280° |
| 2026-04-22 18:53 | 65.24552 | -34.76042 | 36397 ft | 436 kts | 279° |
| 2026-04-22 18:53 | 65.25156 | -34.90436 | 36387 ft | 435 kts | 279° |
| 2026-04-22 18:54 | 65.25745 | -35.04807 | 36394 ft | 435 kts | 279° |
| 2026-04-22 18:54 | 65.26313 | -35.19163 | 36391 ft | 435 kts | 278° |
| 2026-04-22 18:55 | 65.26785 | -35.33575 | 36380 ft | 436 kts | 276° |
| 2026-04-22 18:55 | 65.26997 | -35.48040 | 36388 ft | 436 kts | 274° |
| 2026-04-22 18:56 | 65.27099 | -35.62510 | 36391 ft | 436 kts | 274° |
| 2026-04-22 18:56 | 65.27210 | -35.76961 | 36392 ft | 435 kts | 274° |
| 2026-04-22 18:57 | 65.27346 | -35.91298 | 36373 ft | 434 kts | 274° |
| 2026-04-22 18:57 | 65.27478 | -36.05699 | 36390 ft | 433 kts | 274° |
| 2026-04-22 18:58 | 65.27592 | -36.20066 | 36384 ft | 432 kts | 273° |
| 2026-04-22 18:58 | 65.27688 | -36.34411 | 36395 ft | 432 kts | 273° |
| 2026-04-22 18:59 | 65.27767 | -36.48743 | 36387 ft | 431 kts | 273° |
| 2026-04-22 18:59 | 65.27836 | -36.63080 | 36395 ft | 431 kts | 273° |
| 2026-04-22 19:00 | 65.27888 | -36.77402 | 36396 ft | 431 kts | 273° |
| 2026-04-22 19:00 | 65.27919 | -36.91724 | 36394 ft | 431 kts | 272° |
| 2026-04-22 19:01 | 65.27939 | -37.06048 | 36403 ft | 431 kts | 273° |
| 2026-04-22 19:01 | 65.27955 | -37.20374 | 36403 ft | 431 kts | 272° |
| 2026-04-22 19:02 | 65.27951 | -37.34695 | 36407 ft | 431 kts | 271° |
| 2026-04-22 19:02 | 65.27935 | -37.49002 | 36412 ft | 430 kts | 271° |
| 2026-04-22 19:03 | 65.27912 | -37.63292 | 36411 ft | 430 kts | 271° |
| 2026-04-22 19:03 | 65.27870 | -37.77554 | 36415 ft | 429 kts | 270° |
| 2026-04-22 19:04 | 65.27808 | -37.91805 | 36411 ft | 429 kts | 270° |
| 2026-04-22 19:04 | 65.27731 | -38.06047 | 36408 ft | 429 kts | 270° |
| 2026-04-22 19:05 | 65.27649 | -38.20283 | 36406 ft | 429 kts | 270° |
| 2026-04-22 19:05 | 65.27559 | -38.34521 | 36408 ft | 429 kts | 270° |
| 2026-04-22 19:06 | 65.27456 | -38.48754 | 36404 ft | 429 kts | 270° |
| 2026-04-22 19:07 | 65.27258 | -38.70092 | 36407 ft | 427 kts | 269° |
| 2026-04-22 19:07 | 65.27107 | -38.84151 | 36413 ft | 426 kts | 269° |
| 2026-04-22 19:08 | 65.26952 | -38.98295 | 36411 ft | 425 kts | 269° |
| 2026-04-22 19:08 | 65.26785 | -39.12402 | 36410 ft | 425 kts | 268° |
| 2026-04-22 19:09 | 65.26611 | -39.26494 | 36404 ft | 424 kts | 268° |
| 2026-04-22 19:09 | 65.26415 | -39.40578 | 36398 ft | 424 kts | 268° |
| 2026-04-22 19:10 | 65.26200 | -39.54652 | 36399 ft | 424 kts | 268° |
| 2026-04-22 19:10 | 65.25980 | -39.68713 | 36395 ft | 424 kts | 268° |
| 2026-04-22 19:11 | 65.25749 | -39.82763 | 36397 ft | 423 kts | 268° |
| 2026-04-22 19:11 | 65.25505 | -39.96792 | 36403 ft | 423 kts | 267° |
| 2026-04-22 19:12 | 65.25249 | -40.10779 | 36404 ft | 421 kts | 267° |
| 2026-04-22 19:12 | 65.24973 | -40.24684 | 36407 ft | 418 kts | 266° |
| 2026-04-22 19:13 | 65.24685 | -40.38526 | 36398 ft | 417 kts | 266° |
| 2026-04-22 19:13 | 65.24396 | -40.52346 | 36395 ft | 417 kts | 266° |
| 2026-04-22 19:14 | 65.24100 | -40.66170 | 36398 ft | 417 kts | 266° |
| 2026-04-22 19:14 | 65.23779 | -40.79956 | 36393 ft | 416 kts | 266° |
| 2026-04-22 19:15 | 65.23492 | -40.91386 | 36391 ft | 415 kts | 266° |
| 2026-04-22 19:15 | 65.23096 | -41.07460 | 36389 ft | 415 kts | 266° |
| 2026-04-22 19:16 | 65.22740 | -41.21195 | 36385 ft | 415 kts | 265° |
| 2026-04-22 19:16 | 65.22364 | -41.34907 | 36400 ft | 414 kts | 265° |
| 2026-04-22 19:17 | 65.21989 | -41.48576 | 36396 ft | 412 kts | 265° |
| 2026-04-22 19:17 | 65.21610 | -41.62089 | 36386 ft | 411 kts | 265° |
| 2026-04-22 19:18 | 65.21204 | -41.75642 | 36381 ft | 409 kts | 264° |
| 2026-04-22 19:18 | 65.20796 | -41.89152 | 36375 ft | 408 kts | 264° |
| 2026-04-22 19:19 | 65.20378 | -42.02630 | 36374 ft | 408 kts | 264° |
| 2026-04-22 19:19 | 65.19943 | -42.16088 | 36336 ft | 407 kts | 264° |
| 2026-04-22 19:20 | 65.19488 | -42.29527 | 36334 ft | 407 kts | 264° |
| 2026-04-22 19:20 | 65.19025 | -42.42961 | 36327 ft | 407 kts | 264° |
| 2026-04-22 19:20 | 65.18795 | -42.49672 | 36080 ft | 406 kts | 264° |
| 2026-04-22 19:21 | 65.18564 | -42.56360 | 35829 ft | 404 kts | 264° |
| 2026-04-22 19:21 | 65.18329 | -42.63016 | 35578 ft | 403 kts | 264° |
| 2026-04-22 19:21 | 65.18089 | -42.69656 | 35335 ft | 401 kts | 263° |
| 2026-04-22 19:21 | 65.17850 | -42.76246 | 35093 ft | 399 kts | 263° |
| 2026-04-22 19:22 | 65.17608 | -42.82800 | 34846 ft | 397 kts | 263° |
| 2026-04-22 19:22 | 65.17361 | -42.89323 | 34589 ft | 395 kts | 263° |
| 2026-04-22 19:22 | 65.17113 | -42.95817 | 34346 ft | 393 kts | 263° |
| 2026-04-22 19:22 | 65.16865 | -43.02285 | 34084 ft | 392 kts | 263° |
| 2026-04-22 19:23 | 65.16616 | -43.08727 | 33807 ft | 390 kts | 263° |
| 2026-04-22 19:23 | 65.16367 | -43.15147 | 33537 ft | 389 kts | 263° |
| 2026-04-22 19:23 | 65.16118 | -43.21545 | 33263 ft | 388 kts | 262° |
| 2026-04-22 19:23 | 65.15866 | -43.27921 | 32991 ft | 387 kts | 262° |
| 2026-04-22 19:24 | 65.15610 | -43.34276 | 32734 ft | 385 kts | 262° |
| 2026-04-22 19:24 | 65.15350 | -43.40606 | 32473 ft | 384 kts | 262° |
| 2026-04-22 19:24 | 65.15089 | -43.46917 | 32215 ft | 383 kts | 262° |
| 2026-04-22 19:24 | 65.14826 | -43.53184 | 31808 ft | 379 kts | 262° |
| 2026-04-22 19:25 | 65.14562 | -43.59401 | 31365 ft | 377 kts | 262° |
| 2026-04-22 19:25 | 65.14294 | -43.65579 | 30932 ft | 375 kts | 261° |
| 2026-04-22 19:25 | 65.14026 | -43.71729 | 30523 ft | 373 kts | 261° |
| 2026-04-22 19:25 | 65.13791 | -43.77839 | 30116 ft | 370 kts | 262° |
| 2026-04-22 19:26 | 65.13610 | -43.83915 | 29774 ft | 368 kts | 263° |
| 2026-04-22 19:26 | 65.13454 | -43.89914 | 29507 ft | 369 kts | 263° |
| 2026-04-22 19:26 | 65.13297 | -43.95984 | 29241 ft | 368 kts | 263° |
| 2026-04-22 19:26 | 65.13136 | -44.02031 | 29003 ft | 366 kts | 262° |
| 2026-04-22 19:27 | 65.12971 | -44.08021 | 28731 ft | 362 kts | 262° |
| 2026-04-22 19:27 | 65.12799 | -44.13959 | 28477 ft | 359 kts | 262° |
| 2026-04-22 19:27 | 65.12620 | -44.19868 | 28212 ft | 358 kts | 261° |
| 2026-04-22 19:27 | 65.12435 | -44.25753 | 27952 ft | 357 kts | 261° |
| 2026-04-22 19:28 | 65.12248 | -44.31619 | 27685 ft | 356 kts | 261° |
| 2026-04-22 19:28 | 65.12062 | -44.37472 | 27427 ft | 355 kts | 261° |
| 2026-04-22 19:28 | 65.11876 | -44.43313 | 27171 ft | 354 kts | 261° |
| 2026-04-22 19:28 | 65.11690 | -44.49131 | 26918 ft | 353 kts | 261° |
| 2026-04-22 19:29 | 65.11497 | -44.55019 | 26674 ft | 352 kts | 261° |
| 2026-04-22 19:29 | 65.11307 | -44.60716 | 26428 ft | 351 kts | 261° |
| 2026-04-22 19:29 | 65.11107 | -44.66565 | 26169 ft | 350 kts | 261° |
| 2026-04-22 19:29 | 65.10907 | -44.72318 | 25945 ft | 349 kts | 261° |
| 2026-04-22 19:30 | 65.10842 | -44.74185 | 25857 ft | 349 kts | 261° |
| 2026-04-22 19:30 | 65.10514 | -44.83715 | 25467 ft | 348 kts | 260° |
| 2026-04-22 19:30 | 65.10313 | -44.89440 | 25228 ft | 348 kts | 260° |
| 2026-04-22 19:30 | 65.10110 | -44.95151 | 24993 ft | 347 kts | 260° |
| 2026-04-22 19:31 | 65.09903 | -45.00914 | 24761 ft | 346 kts | 260° |
| 2026-04-22 19:31 | 65.09697 | -45.06609 | 24518 ft | 345 kts | 260° |
| 2026-04-22 19:31 | 65.09489 | -45.12276 | 24383 ft | 345 kts | 260° |
| 2026-04-22 19:31 | 65.09281 | -45.17867 | 24247 ft | 345 kts | 260° |
| 2026-04-22 19:32 | 65.09138 | -45.21690 | 24155 ft | 345 kts | 260° |
| 2026-04-22 19:32 | 65.08923 | -45.27349 | 24018 ft | 344 kts | 260° |
| 2026-04-22 19:32 | 65.08642 | -45.34821 | 23865 ft | 341 kts | 259° |
| 2026-04-22 19:32 | 65.08431 | -45.40404 | 23710 ft | 339 kts | 259° |
| 2026-04-22 19:33 | 65.08214 | -45.45953 | 23522 ft | 337 kts | 259° |
| 2026-04-22 19:33 | 65.07994 | -45.51477 | 23344 ft | 336 kts | 259° |
| 2026-04-22 19:33 | 65.07772 | -45.56982 | 23147 ft | 335 kts | 258° |
| 2026-04-22 19:33 | 65.07548 | -45.62470 | 22959 ft | 334 kts | 258° |
| 2026-04-22 19:34 | 65.07398 | -45.66162 | 22834 ft | 333 kts | 258° |
| 2026-04-22 19:34 | 65.07175 | -45.71621 | 22648 ft | 332 kts | 258° |
| 2026-04-22 19:34 | 65.06950 | -45.77060 | 22464 ft | 331 kts | 258° |
| 2026-04-22 19:34 | 65.06724 | -45.82482 | 22292 ft | 330 kts | 258° |
| 2026-04-22 19:35 | 65.06499 | -45.87895 | 22118 ft | 329 kts | 258° |
| 2026-04-22 19:35 | 65.06275 | -45.93266 | 21937 ft | 327 kts | 258° |
| 2026-04-22 19:35 | 65.06050 | -45.98615 | 21757 ft | 326 kts | 258° |
| 2026-04-22 19:35 | 65.05824 | -46.03872 | 21582 ft | 325 kts | 257° |
| 2026-04-22 19:36 | 65.05593 | -46.09181 | 21401 ft | 324 kts | 257° |
| 2026-04-22 19:36 | 65.05362 | -46.14477 | 21225 ft | 323 kts | 257° |
| 2026-04-22 19:36 | 65.05127 | -46.19754 | 21049 ft | 322 kts | 257° |
| 2026-04-22 19:36 | 65.04891 | -46.25015 | 20875 ft | 321 kts | 257° |
| 2026-04-22 19:37 | 65.04657 | -46.30262 | 20703 ft | 320 kts | 257° |
| 2026-04-22 19:37 | 65.04422 | -46.35492 | 20530 ft | 319 kts | 257° |
| 2026-04-22 19:37 | 65.04184 | -46.40706 | 20360 ft | 318 kts | 257° |
| 2026-04-22 19:37 | 65.03945 | -46.45896 | 20189 ft | 317 kts | 257° |
| 2026-04-22 19:38 | 65.03706 | -46.51078 | 20018 ft | 316 kts | 257° |
| 2026-04-22 19:38 | 65.03468 | -46.56257 | 19850 ft | 316 kts | 257° |
| 2026-04-22 19:38 | 65.03232 | -46.61412 | 19712 ft | 313 kts | 256° |
| 2026-04-22 19:38 | 65.02998 | -46.66504 | 19545 ft | 310 kts | 256° |
| 2026-04-22 19:39 | 65.02760 | -46.71557 | 19380 ft | 308 kts | 256° |
| 2026-04-22 19:39 | 65.02518 | -46.76586 | 19217 ft | 307 kts | 256° |
| 2026-04-22 19:39 | 65.02273 | -46.81590 | 19049 ft | 306 kts | 256° |
| 2026-04-22 19:39 | 65.02028 | -46.86588 | 18817 ft | 305 kts | 256° |
| 2026-04-22 19:40 | 65.01786 | -46.91565 | 18586 ft | 304 kts | 256° |
| 2026-04-22 19:40 | 65.01540 | -46.96524 | 18325 ft | 303 kts | 256° |
| 2026-04-22 19:40 | 65.01294 | -47.01458 | 18057 ft | 301 kts | 256° |
| 2026-04-22 19:40 | 65.01046 | -47.06368 | 17790 ft | 300 kts | 256° |
| 2026-04-22 19:41 | 65.00801 | -47.11250 | 17524 ft | 299 kts | 256° |
| 2026-04-22 19:41 | 65.00556 | -47.16117 | 17263 ft | 297 kts | 256° |
| 2026-04-22 19:41 | 65.00310 | -47.20969 | 17008 ft | 296 kts | 255° |
| 2026-04-22 19:41 | 65.00066 | -47.25723 | 16749 ft | 295 kts | 255° |
| 2026-04-22 19:42 | 64.99816 | -47.30583 | 16494 ft | 293 kts | 255° |
| 2026-04-22 19:42 | 64.99572 | -47.35292 | 16245 ft | 292 kts | 255° |
| 2026-04-22 19:42 | 64.99322 | -47.40041 | 15995 ft | 291 kts | 255° |
| 2026-04-22 19:42 | 64.99076 | -47.44770 | 15748 ft | 289 kts | 255° |
| 2026-04-22 19:43 | 64.98578 | -47.54163 | 15260 ft | 287 kts | 255° |
| 2026-04-22 19:43 | 64.98325 | -47.58824 | 15018 ft | 286 kts | 255° |
| 2026-04-22 19:43 | 64.98073 | -47.63468 | 14776 ft | 284 kts | 255° |
| 2026-04-22 19:44 | 64.97822 | -47.68088 | 14538 ft | 283 kts | 255° |
| 2026-04-22 19:44 | 64.97569 | -47.72692 | 14302 ft | 282 kts | 255° |
| 2026-04-22 19:44 | 64.97315 | -47.77284 | 14066 ft | 281 kts | 255° |
| 2026-04-22 19:44 | 64.97061 | -47.81853 | 13800 ft | 280 kts | 255° |
| 2026-04-22 19:45 | 64.96808 | -47.86402 | 13568 ft | 279 kts | 255° |
| 2026-04-22 19:45 | 64.96558 | -47.90914 | 13305 ft | 276 kts | 254° |
| 2026-04-22 19:45 | 64.96310 | -47.95374 | 13064 ft | 274 kts | 253° |
| 2026-04-22 19:45 | 64.96059 | -47.99825 | 12803 ft | 273 kts | 253° |
| 2026-04-22 19:46 | 64.95810 | -48.04245 | 12541 ft | 272 kts | 253° |
| 2026-04-22 19:46 | 64.95560 | -48.08653 | 12277 ft | 271 kts | 253° |
| 2026-04-22 19:46 | 64.95307 | -48.13048 | 12038 ft | 270 kts | 253° |
| 2026-04-22 19:46 | 64.95054 | -48.17426 | 11787 ft | 269 kts | 253° |
| 2026-04-22 19:47 | 64.94798 | -48.21791 | 11537 ft | 268 kts | 253° |
| 2026-04-22 19:47 | 64.94541 | -48.26134 | 11287 ft | 267 kts | 253° |
| 2026-04-22 19:47 | 64.94286 | -48.30467 | 11049 ft | 266 kts | 253° |
| 2026-04-22 19:47 | 64.94033 | -48.34786 | 10803 ft | 266 kts | 253° |
| 2026-04-22 19:48 | 64.93779 | -48.39095 | 10561 ft | 265 kts | 253° |
| 2026-04-22 19:48 | 64.93523 | -48.43392 | 10320 ft | 264 kts | 253° |
| 2026-04-22 19:48 | 64.93265 | -48.47678 | 10072 ft | 264 kts | 253° |
| 2026-04-22 19:48 | 64.93007 | -48.51955 | 9800 ft | 263 kts | 253° |
| 2026-04-22 19:49 | 64.92752 | -48.56220 | 9520 ft | 262 kts | 253° |
| 2026-04-22 19:49 | 64.92495 | -48.60477 | 9260 ft | 262 kts | 253° |
| 2026-04-22 19:49 | 64.92235 | -48.64724 | 9000 ft | 261 kts | 254° |
| 2026-04-22 19:49 | 64.91977 | -48.68960 | 8740 ft | 261 kts | 254° |
| 2026-04-22 19:50 | 64.91715 | -48.73198 | 8482 ft | 261 kts | 254° |
| 2026-04-22 19:50 | 64.91451 | -48.77434 | 8231 ft | 261 kts | 255° |
| 2026-04-22 19:50 | 64.91187 | -48.81664 | 7975 ft | 260 kts | 254° |
| 2026-04-22 19:50 | 64.90926 | -48.85878 | 7720 ft | 260 kts | 255° |
| 2026-04-22 19:51 | 64.90664 | -48.90088 | 7473 ft | 260 kts | 255° |
| 2026-04-22 19:51 | 64.90395 | -48.94300 | 7202 ft | 260 kts | 255° |
| 2026-04-22 19:51 | 64.90132 | -48.98432 | 7024 ft | 258 kts | 253° |
| 2026-04-22 19:51 | 64.89865 | -49.02600 | 7020 ft | 258 kts | 252° |
| 2026-04-22 19:52 | 64.89597 | -49.06769 | 7015 ft | 257 kts | 253° |
| 2026-04-22 19:52 | 64.89332 | -49.10928 | 7020 ft | 257 kts | 253° |
| 2026-04-22 19:52 | 64.89064 | -49.15090 | 7044 ft | 257 kts | 252° |
| 2026-04-22 19:52 | 64.88793 | -49.19257 | 7036 ft | 257 kts | 252° |
| 2026-04-22 19:53 | 64.88523 | -49.23424 | 7028 ft | 258 kts | 252° |
| 2026-04-22 19:53 | 64.88252 | -49.27589 | 7036 ft | 257 kts | 252° |
| 2026-04-22 19:53 | 64.87978 | -49.31740 | 7036 ft | 257 kts | 252° |
| 2026-04-22 19:53 | 64.87704 | -49.35894 | 7035 ft | 257 kts | 252° |
| 2026-04-22 19:54 | 64.87429 | -49.40048 | 7029 ft | 257 kts | 252° |
| 2026-04-22 19:54 | 64.87152 | -49.44203 | 7025 ft | 257 kts | 252° |
| 2026-04-22 19:54 | 64.86872 | -49.48363 | 7036 ft | 258 kts | 252° |
| 2026-04-22 19:54 | 64.86592 | -49.52529 | 7036 ft | 258 kts | 252° |
| 2026-04-22 19:55 | 64.86313 | -49.56695 | 7029 ft | 258 kts | 252° |
| 2026-04-22 19:55 | 64.86036 | -49.60854 | 7035 ft | 257 kts | 252° |
| 2026-04-22 19:55 | 64.85754 | -49.64999 | 7018 ft | 256 kts | 252° |
| 2026-04-22 19:55 | 64.85470 | -49.69143 | 7029 ft | 257 kts | 252° |
| 2026-04-22 19:56 | 64.85187 | -49.73284 | 7032 ft | 257 kts | 252° |
| 2026-04-22 19:56 | 64.84903 | -49.77429 | 7026 ft | 257 kts | 252° |
| 2026-04-22 19:56 | 64.84616 | -49.81577 | 7034 ft | 257 kts | 252° |
| 2026-04-22 19:56 | 64.84326 | -49.85719 | 7025 ft | 257 kts | 251° |
| 2026-04-22 19:57 | 64.84035 | -49.89875 | 7034 ft | 258 kts | 252° |
| 2026-04-22 19:57 | 64.83743 | -49.94027 | 7029 ft | 258 kts | 251° |
| 2026-04-22 19:57 | 64.83446 | -49.98173 | 7033 ft | 256 kts | 249° |
| 2026-04-22 19:57 | 64.82916 | -50.02077 | 7036 ft | 248 kts | 239° |
| 2026-04-22 19:58 | 64.82176 | -50.05764 | 7033 ft | 251 kts | 238° |
| 2026-04-22 19:58 | 64.81429 | -50.09480 | 7036 ft | 252 kts | 238° |
| 2026-04-22 19:58 | 64.80681 | -50.13200 | 7030 ft | 252 kts | 238° |
| 2026-04-22 19:58 | 64.79934 | -50.16922 | 7034 ft | 252 kts | 239° |
| 2026-04-22 19:59 | 64.79186 | -50.20645 | 7034 ft | 252 kts | 238° |
| 2026-04-22 20:00 | 64.74683 | -50.42805 | 7050 ft | 252 kts | 238° |
| 2026-04-22 20:00 | 64.73929 | -50.46511 | 7052 ft | 253 kts | 238° |
| 2026-04-22 20:01 | 64.73175 | -50.50213 | 7055 ft | 252 kts | 238° |
| 2026-04-22 20:01 | 64.72421 | -50.53917 | 7045 ft | 252 kts | 238° |
| 2026-04-22 20:01 | 64.71664 | -50.57613 | 7070 ft | 252 kts | 238° |
| 2026-04-22 20:01 | 64.70905 | -50.61317 | 7049 ft | 253 kts | 238° |
| 2026-04-22 20:02 | 64.70144 | -50.65027 | 7058 ft | 253 kts | 238° |
| 2026-04-22 20:02 | 64.69379 | -50.68739 | 7051 ft | 254 kts | 238° |
| 2026-04-22 20:02 | 64.68614 | -50.72450 | 7066 ft | 252 kts | 238° |
| 2026-04-22 20:02 | 64.67851 | -50.76144 | 7314 ft | 254 kts | 238° |
| 2026-04-22 20:03 | 64.67083 | -50.79852 | 7449 ft | 252 kts | 234° |
| 2026-04-22 20:03 | 64.66340 | -50.83454 | 7450 ft | 241 kts | 233° |
| 2026-04-22 20:03 | 64.65610 | -50.86967 | 7451 ft | 240 kts | 233° |
| 2026-04-22 20:03 | 64.64879 | -50.90455 | 7451 ft | 240 kts | 233° |
| 2026-04-22 20:04 | 64.64143 | -50.93946 | 7466 ft | 240 kts | 233° |
| 2026-04-22 20:04 | 64.63409 | -50.97442 | 7468 ft | 240 kts | 233° |
| 2026-04-22 20:04 | 64.62675 | -51.00944 | 7469 ft | 240 kts | 233° |
| 2026-04-22 20:04 | 64.61942 | -51.04432 | 7464 ft | 239 kts | 233° |
| 2026-04-22 20:05 | 64.61208 | -51.07913 | 7473 ft | 240 kts | 233° |
| 2026-04-22 20:05 | 64.60474 | -51.11394 | 7463 ft | 239 kts | 233° |
| 2026-04-22 20:05 | 64.59737 | -51.14877 | 7467 ft | 240 kts | 233° |
| 2026-04-22 20:05 | 64.59003 | -51.18360 | 7467 ft | 240 kts | 233° |
| 2026-04-22 20:06 | 64.58270 | -51.21837 | 7466 ft | 238 kts | 233° |
| 2026-04-22 20:06 | 64.57567 | -51.25199 | 7464 ft | 224 kts | 232° |
| 2026-04-22 20:06 | 64.56909 | -51.28349 | 7465 ft | 210 kts | 232° |
| 2026-04-22 20:06 | 64.56291 | -51.31291 | 7465 ft | 195 kts | 231° |
| 2026-04-22 20:07 | 64.55705 | -51.34058 | 7471 ft | 189 kts | 230° |
| 2026-04-22 20:07 | 64.55116 | -51.36787 | 7470 ft | 188 kts | 230° |
| 2026-04-22 20:07 | 64.54528 | -51.39506 | 7470 ft | 187 kts | 229° |
| 2026-04-22 20:07 | 64.53753 | -51.41766 | 7470 ft | 173 kts | 210° |
| 2026-04-22 20:08 | 64.52697 | -51.43030 | 7151 ft | 172 kts | 193° |
| 2026-04-22 20:08 | 64.51550 | -51.43882 | 6798 ft | 175 kts | 194° |
| 2026-04-22 20:08 | 64.50380 | -51.44760 | 6433 ft | 178 kts | 194° |
| 2026-04-22 20:08 | 64.49194 | -51.45648 | 6073 ft | 181 kts | 194° |
| 2026-04-22 20:09 | 64.47991 | -51.46549 | 5744 ft | 182 kts | 193° |
| 2026-04-22 20:09 | 64.46777 | -51.47457 | 5381 ft | 184 kts | 193° |
| 2026-04-22 20:09 | 64.45550 | -51.48373 | 5025 ft | 186 kts | 194° |
| 2026-04-22 20:09 | 64.44330 | -51.49284 | 4662 ft | 188 kts | 194° |
| 2026-04-22 20:10 | 64.43106 | -51.50199 | 4514 ft | 179 kts | 194° |
| 2026-04-22 20:10 | 64.41946 | -51.51066 | 4469 ft | 167 kts | 194° |
| 2026-04-22 20:10 | 64.40885 | -51.51856 | 4396 ft | 158 kts | 194° |
| 2026-04-22 20:10 | 64.39860 | -51.52617 | 4224 ft | 151 kts | 194° |
| 2026-04-22 20:11 | 64.38877 | -51.53347 | 4067 ft | 146 kts | 194° |
| 2026-04-22 20:11 | 64.37918 | -51.54058 | 3910 ft | 144 kts | 194° |
| 2026-04-22 20:11 | 64.36969 | -51.54761 | 3766 ft | 142 kts | 194° |
| 2026-04-22 20:11 | 64.36031 | -51.55456 | 3613 ft | 141 kts | 195° |
| 2026-04-22 20:12 | 64.35104 | -51.56143 | 3460 ft | 139 kts | 195° |
| 2026-04-22 20:12 | 64.34184 | -51.56824 | 3271 ft | 139 kts | 195° |
| 2026-04-22 20:12 | 64.33568 | -51.57279 | 3222 ft | 136 kts | 195° |
| 2026-04-22 20:12 | 64.32375 | -51.58161 | 3066 ft | 136 kts | 194° |
| 2026-04-22 20:13 | 64.31488 | -51.58817 | 2907 ft | 129 kts | 194° |
| 2026-04-22 20:13 | 64.30687 | -51.59411 | 2742 ft | 112 kts | 194° |
| 2026-04-22 20:13 | 64.29999 | -51.59920 | 2575 ft | 97 kts | 194° |
| 2026-04-22 20:13 | 64.29393 | -51.60367 | 2423 ft | 86 kts | 193° |
| 2026-04-22 20:14 | 64.28846 | -51.60772 | 2228 ft | 87 kts | 194° |
| 2026-04-22 20:14 | 64.28190 | -51.61242 | 2373 ft | 105 kts | 193° |
| 2026-04-22 20:14 | 64.27446 | -51.61759 | 2040 ft | 121 kts | 193° |
| 2026-04-22 20:14 | 64.26594 | -51.62331 | 1354 ft | 125 kts | 193° |
| 2026-04-22 20:15 | 64.25723 | -51.62910 | 1160 ft | 139 kts | 193° |
| 2026-04-22 20:15 | 64.24837 | -51.63495 | 1850 ft | 126 kts | 193° |
| 2026-04-22 20:15 | 64.23968 | -51.64066 | 2017 ft | 137 kts | 193° |
| 2026-04-22 20:15 | 64.23030 | -51.64675 | 2541 ft | 139 kts | 193° |
| 2026-04-22 20:16 | 64.22062 | -51.65293 | 2955 ft | 156 kts | 193° |
| 2026-04-22 20:16 | 64.20933 | -51.66009 | 2997 ft | 165 kts | 193° |
| 2026-04-22 20:16 | 64.19840 | -51.66708 | 3005 ft | 162 kts | 193° |
| 2026-04-22 20:16 | 64.18839 | -51.67891 | 3010 ft | 169 kts | 218° |
| 2026-04-22 20:17 | 64.18317 | -51.70417 | 3013 ft | 195 kts | 256° |
| 2026-04-22 20:17 | 64.18601 | -51.73784 | 3018 ft | 227 kts | 278° |
| 2026-04-22 20:17 | 64.19149 | -51.77183 | 3011 ft | 232 kts | 281° |
| 2026-04-22 20:17 | 64.19762 | -51.80620 | 3011 ft | 233 kts | 282° |
| 2026-04-22 20:18 | 64.20382 | -51.84054 | 3018 ft | 232 kts | 285° |
| 2026-04-22 20:18 | 64.20992 | -51.87455 | 3015 ft | 230 kts | 284° |
| 2026-04-22 20:18 | 64.21588 | -51.90850 | 3014 ft | 229 kts | 284° |
| 2026-04-22 20:18 | 64.22175 | -51.94254 | 3016 ft | 229 kts | 284° |
| 2026-04-22 20:19 | 64.22567 | -51.96556 | 3019 ft | 229 kts | 283° |
| 2026-04-22 20:19 | 64.23332 | -52.01095 | 3023 ft | 230 kts | 283° |
| 2026-04-22 20:19 | 64.23909 | -52.04528 | 3024 ft | 230 kts | 283° |
| 2026-04-22 20:19 | 64.24485 | -52.07966 | 3030 ft | 231 kts | 283° |
| 2026-04-22 20:20 | 64.25062 | -52.11406 | 3029 ft | 230 kts | 283° |
| 2026-04-22 20:20 | 64.25577 | -52.14880 | 3030 ft | 229 kts | 279° |
| 2026-04-22 20:20 | 64.25893 | -52.17245 | 3036 ft | 228 kts | 279° |
| 2026-04-22 20:20 | 64.26346 | -52.20741 | 3037 ft | 228 kts | 279° |
| 2026-04-22 20:21 | 64.26796 | -52.24242 | 3045 ft | 228 kts | 278° |
| 2026-04-22 20:21 | 64.27250 | -52.27750 | 3046 ft | 228 kts | 279° |
| 2026-04-22 20:21 | 64.27634 | -52.31263 | 3044 ft | 221 kts | 265° |
| 2026-04-22 20:21 | 64.27348 | -52.34476 | 3044 ft | 203 kts | 232° |
| 2026-04-22 20:22 | 64.26307 | -52.36392 | 3047 ft | 192 kts | 193° |
| 2026-04-22 20:22 | 64.24897 | -52.36364 | 2781 ft | 224 kts | 172° |
| 2026-04-22 20:22 | 64.23291 | -52.36009 | 2609 ft | 236 kts | 170° |
| 2026-04-22 20:22 | 64.21851 | -52.34411 | 2489 ft | 237 kts | 131° |
| 2026-04-22 20:23 | 64.21184 | -52.31067 | 2491 ft | 233 kts | 90° |
| 2026-04-22 20:23 | 64.21610 | -52.27611 | 2492 ft | 226 kts | 49° |
| 2026-04-22 20:23 | 64.22832 | -52.25433 | 2493 ft | 224 kts | 28° |
| 2026-04-22 20:23 | 64.24170 | -52.23578 | 2492 ft | 225 kts | 29° |
| 2026-04-22 20:24 | 64.25362 | -52.21259 | 2488 ft | 228 kts | 53° |
| 2026-04-22 20:24 | 64.25825 | -52.17781 | 2491 ft | 234 kts | 91° |
| 2026-04-22 20:24 | 64.25472 | -52.14104 | 2490 ft | 237 kts | 104° |
| 2026-04-22 20:24 | 64.24839 | -52.10609 | 2489 ft | 239 kts | 126° |
| 2026-04-22 20:25 | 64.23546 | -52.08262 | 2492 ft | 240 kts | 159° |
| 2026-04-22 20:25 | 64.21909 | -52.07704 | 2496 ft | 240 kts | 182° |
| 2026-04-22 20:25 | 64.20198 | -52.07929 | 2498 ft | 260 kts | 188° |
| 2026-04-22 20:25 | 64.18386 | -52.08768 | 2492 ft | 268 kts | 195° |
| 2026-04-22 20:26 | 64.16571 | -52.09826 | 2491 ft | 270 kts | 196° |
| 2026-04-22 20:26 | 64.14754 | -52.10910 | 2492 ft | 270 kts | 196° |
| 2026-04-22 20:26 | 64.12940 | -52.11997 | 2492 ft | 270 kts | 196° |
| 2026-04-22 20:26 | 64.11123 | -52.13088 | 2492 ft | 270 kts | 196° |
| 2026-04-22 20:27 | 64.09306 | -52.14142 | 2490 ft | 267 kts | 192° |
| 2026-04-22 20:27 | 64.07500 | -52.14107 | 2488 ft | 254 kts | 167° |
| 2026-04-22 20:27 | 64.05939 | -52.12581 | 2489 ft | 238 kts | 144° |
| 2026-04-22 20:27 | 64.04807 | -52.09999 | 2493 ft | 226 kts | 122° |
| 2026-04-22 20:28 | 64.04182 | -52.06780 | 2491 ft | 221 kts | 100° |
| 2026-04-22 20:28 | 64.04077 | -52.03328 | 2492 ft | 219 kts | 81° |
| 2026-04-22 20:28 | 64.04486 | -51.99729 | 2503 ft | 252 kts | 69° |
| 2026-04-22 20:28 | 64.05055 | -51.95846 | 2492 ft | 261 kts | 69° |
| 2026-04-22 20:29 | 64.05617 | -51.91963 | 2489 ft | 252 kts | 69° |
| 2026-04-22 20:29 | 64.06145 | -51.88277 | 2489 ft | 237 kts | 69° |
| 2026-04-22 20:29 | 64.06640 | -51.84817 | 2488 ft | 221 kts | 69° |
| 2026-04-22 20:29 | 64.07102 | -51.81587 | 2486 ft | 206 kts | 69° |
| 2026-04-22 20:30 | 64.07549 | -51.78596 | 2473 ft | 191 kts | 62° |
| 2026-04-22 20:30 | 64.08297 | -51.76305 | 2356 ft | 171 kts | 37° |
| 2026-04-22 20:30 | 64.09275 | -51.75073 | 2185 ft | 152 kts | 15° |
| 2026-04-22 20:30 | 64.10236 | -51.74375 | 1995 ft | 141 kts | 15° |
| 2026-04-22 20:31 | 64.11155 | -51.73710 | 1798 ft | 137 kts | 15° |
| 2026-04-22 20:31 | 64.12058 | -51.73055 | 1612 ft | 136 kts | 15° |
| 2026-04-22 20:31 | 64.12957 | -51.72402 | 1417 ft | 136 kts | 15° |
| 2026-04-22 20:31 | 64.13854 | -51.71750 | 1227 ft | 135 kts | 15° |
| 2026-04-22 20:32 | 64.14747 | -51.71100 | 1036 ft | 134 kts | 15° |
| 2026-04-22 20:32 | 64.15638 | -51.70452 | 838 ft | 134 kts | 15° |
| 2026-04-22 20:32 | 64.16530 | -51.69803 | 659 ft | 134 kts | 15° |
| 2026-04-22 20:32 | 64.17421 | -51.69148 | 459 ft | 134 kts | 15° |
| 2026-04-22 20:33 | 64.18312 | -51.68498 | 304 ft | 132 kts | 17° |
| 2026-04-22 20:33 | 64.19003 | -51.67987 | 292 ft | 64 kts | 19° |
| 2026-04-22 20:33 | 64.19204 | -51.67831 | 288 ft | 19 kts | 18° |
| 2026-04-22 20:33 | 64.19356 | -51.67718 | 287 ft | 29 kts | 17° |
| 2026-04-22 20:34 | 64.19586 | -51.67544 | 292 ft | 38 kts | 18° |
| 2026-04-22 20:34 | 64.19832 | -51.67368 | 293 ft | 33 kts | 17° |
| 2026-04-22 20:34 | 64.19956 | -51.67349 | 289 ft | 12 kts | 4° |
| 2026-04-22 20:34 | 64.19948 | -51.67276 | 292 ft | 7 kts | 182° |
| 2026-04-22 20:35 | 64.19890 | -51.67317 | 292 ft | 10 kts | 197° |
| 2026-04-22 20:35 | 64.19792 | -51.67393 | 293 ft | 20 kts | 198° |
| 2026-04-22 20:35 | 64.19625 | -51.67519 | 292 ft | 30 kts | 199° |
| 2026-04-22 20:35 | 64.19432 | -51.67666 | 288 ft | 28 kts | 198° |
| 2026-04-22 20:36 | 64.19252 | -51.67804 | 286 ft | 26 kts | 199° |
| 2026-04-22 20:36 | 64.19118 | -51.67888 | 292 ft | 9 kts | 161° |
| 2026-04-22 20:36 | 64.19088 | -51.67770 | 292 ft | 9 kts | 107° |
| 2026-04-22 20:36 | 64.19067 | -51.67623 | 288 ft | 9 kts | 115° |
| 2026-04-22 20:37 | 64.19016 | -51.67604 | 288 ft | 8 kts | 197° |
| 2026-04-22 20:37 | 64.18956 | -51.67649 | 288 ft | 10 kts | 198° |
| 2026-04-22 20:37 | 64.18880 | -51.67704 | 288 ft | 13 kts | 198° |
| 2026-04-22 20:37 | 64.18785 | -51.67773 | 288 ft | 16 kts | 197° |
| 2026-04-22 20:38 | 64.18669 | -51.67855 | 288 ft | 19 kts | 197° |
| 2026-04-22 20:38 | 64.18548 | -51.67954 | 288 ft | 17 kts | 198° |
| 2026-04-22 20:38 | 64.18449 | -51.68028 | 288 ft | 12 kts | 197° |
| 2026-04-22 20:38 | 64.18397 | -51.68009 | 288 ft | 7 kts | 147° |
| 2026-04-22 20:39 | 64.18376 | -51.67976 | 292 ft | 0 kts | 144° |